VTBS METAR and TAF | Updated Today

VTBS METAR

Suvarnabhumi Airport

Observation time: 34 min. ago

VTBS 032200Z 04005KT 9999 FEW020 21/13 Q1015 NOSIG

Need help? Read our tutorial on how to read METARs or read the parsed version below.

Suvarnabhumi Airport (VTBS) METAR

  • Weather conditions on Fri, 03 Dec 2021 22:00:00 +0000 (34 min. ago):
  • Present conditions: Dry
  • Clouds: A few at 610 meters
  • Visibility: Greater than 10 km
  • Wind: 40 degrees at 5 knots
  • Temperature: 21 celsius
  • Dew point: 13 celsius
  • Pressure: 1015 millibars
  • Remarks: None


Useful to know...

VTBS TAF

Suvarnabhumi Airport

TAF VTBS 031700Z 0318/0424 05008KT 9999 FEW030
Observation time: 5:34 hr. ago
Need help? Read our tutorial on how to read TAFs or read the parsed version below.

Parsed version of TAF for Suvarnabhumi Airport (VTBS)

  • From 03 December at 18:00 UTC, to day 04 of the month at 24:00 UTC
  • Clouds: A few at 914 meters
  • Visibility: Greater than 10 km
  • Wind: 50 degrees at 8